Chamar Uno — EA2638 — position and weather

sailwx.info

Track history (hours):
 
Tides and Currents Weather Stations Pressure Air Temp Water Temp Dewpoint Dewpoint Depression Visibility Wind Speed Wind Dir Waves Ship Positions

Chamar Uno

Last reported at 2018-Jun-21 03:05 UTC. Time now 2018-Jun-23 02:41 UTC.
Position N 28°09' W 015°25'.

Length 16 m; draft 3.7 m.

Type: Other ship. MMSI: 224053260.

Date/timePositionNaut miles runAvg speedWind from/ knotsBaromVisibWave heightAir tempDewpointWater temp
2018-Jun-21 03:05N 28°09' W 015°25'0 1.3
2018-Jun-21 03:00N 28°08' W 015°25'3 5.7
2018-Jun-21 02:30N 28°06' W 015°24'0 0.0
2018-Jun-21 02:00N 28°06' W 015°24'0 0.0
2018-Jun-21 01:30N 28°06' W 015°24'0 0.0
2018-Jun-21 01:00N 28°06' W 015°24'0 0.0
2018-Jun-21 00:30N 28°06' W 015°24'0 0.1
2018-Jun-21 00:00N 28°06' W 015°24'0 0.1
2018-Jun-20 23:30N 28°06' W 015°24'0 0.0
2018-Jun-20 23:00N 28°06' W 015°24'0 0.1
2018-Jun-20 22:30N 28°06' W 015°24'0 0.1
2018-Jun-20 22:00N 28°06' W 015°24'0 0.2
2018-Jun-20 21:30N 28°06' W 015°24'3 0.1
2018-Jun-18 23:50N 28°08' W 015°25'3 7.6
2018-Jun-18 23:30N 28°06' W 015°24'0 0.0
2018-Jun-18 23:00N 28°06' W 015°24'0 0.0
2018-Jun-18 22:30N 28°06' W 015°24'0 0.0
2018-Jun-18 22:00N 28°06' W 015°24'0 0.0
2018-Jun-18 21:30N 28°06' W 015°24'0 0.0
2018-Jun-18 21:00N 28°06' W 015°24'0 0.2
2018-Jun-18 20:30N 28°06' W 015°24'3 5.8
2018-Jun-18 20:00N 28°09' W 015°25'0 0.0
2018-Jun-17 11:19N 28°09' W 015°25'2 5.8
2018-Jun-17 11:00N 28°07' W 015°25'4 8.2
2018-Jun-17 10:30N 28°03' W 015°23'4 7.5
2018-Jun-17 10:00N 27°60' W 015°21'3 6.8
2018-Jun-17 09:30N 27°56' W 015°21'4 0.2
2018-Jun-16 11:50N 27°53' W 015°22'2 4.5
2018-Jun-16 11:29N 27°54' W 015°21'3 5.2
2018-Jun-16 11:00N 27°57' W 015°21'4 8.5
2018-Jun-16 10:30N 28°01' W 015°22'4 8.1
2018-Jun-16 10:00N 28°05' W 015°24'4 7.9
2018-Jun-16 09:30N 28°09' W 015°25'2 0.9
2018-Jun-16 07:17N 28°07' W 015°24'0 0.0
2018-Jun-16 07:01N 28°07' W 015°24'2 0.1
2018-Jun-14 20:21N 28°09' W 015°25'1 2.3
2018-Jun-14 20:00N 28°08' W 015°25'2 4.0
2018-Jun-14 19:30N 28°06' W 015°24'2 5.0
2018-Jun-14 19:00N 28°08' W 015°25'0 0.0
2018-Jun-13 10:42N 28°08' W 015°25'1 7.6
2018-Jun-13 10:31N 28°07' W 015°25'2 3.9
2018-Jun-13 10:00N 28°05' W 015°24'3 0.1
2018-Jun-12 13:03N 28°08' W 015°25'0 8.5
2018-Jun-12 13:00N 28°07' W 015°25'3 5.3
2018-Jun-12 12:30N 28°05' W 015°24'4 3.8
2018-Jun-12 11:28N 28°09' W 015°25'0 0.0
2018-Jun-12 11:00N 28°09' W 015°25'3 5.2
2018-Jun-12 10:30N 28°06' W 015°24'0 0.1
2018-Jun-12 10:00N 28°06' W 015°24'1 1.8
2018-Jun-12 09:30N 28°07' W 015°25'2 1.1
2018-Jun-12 07:57N 28°09' W 015°25'0 0.0
2018-Jun-11 12:30N 28°09' W 015°25'  
Track history (hours):
 
Tides and Currents Weather Stations Pressure Air Temp Water Temp Dewpoint Dewpoint Depression Visibility Wind Speed Wind Dir Waves Ship Positions

Chamar Uno

Last reported at 2018-Jun-21 03:05 UTC. Time now 2018-Jun-23 02:41 UTC.
Position N 28°09' W 015°25'.

Length 16 m; draft 3.7 m.

Type: Other ship. MMSI: 224053260.

Date/timePositionNaut miles runAvg speedWind from/ knotsBaromVisibWave heightAir tempDewpointWater temp
2018-Jun-21 03:05N 28°09' W 015°25'0 1.3
2018-Jun-21 03:00N 28°08' W 015°25'3 5.7
2018-Jun-21 02:30N 28°06' W 015°24'0 0.0
2018-Jun-21 02:00N 28°06' W 015°24'0 0.0
2018-Jun-21 01:30N 28°06' W 015°24'0 0.0
2018-Jun-21 01:00N 28°06' W 015°24'0 0.0
2018-Jun-21 00:30N 28°06' W 015°24'0 0.1
2018-Jun-21 00:00N 28°06' W 015°24'0 0.1
2018-Jun-20 23:30N 28°06' W 015°24'0 0.0
2018-Jun-20 23:00N 28°06' W 015°24'0 0.1
2018-Jun-20 22:30N 28°06' W 015°24'0 0.1
2018-Jun-20 22:00N 28°06' W 015°24'0 0.2
2018-Jun-20 21:30N 28°06' W 015°24'3 0.1
2018-Jun-18 23:50N 28°08' W 015°25'3 7.6
2018-Jun-18 23:30N 28°06' W 015°24'0 0.0
2018-Jun-18 23:00N 28°06' W 015°24'0 0.0
2018-Jun-18 22:30N 28°06' W 015°24'0 0.0
2018-Jun-18 22:00N 28°06' W 015°24'0 0.0
2018-Jun-18 21:30N 28°06' W 015°24'0 0.0
2018-Jun-18 21:00N 28°06' W 015°24'0 0.2
2018-Jun-18 20:30N 28°06' W 015°24'3 5.8
2018-Jun-18 20:00N 28°09' W 015°25'0 0.0
2018-Jun-17 11:19N 28°09' W 015°25'2 5.8
2018-Jun-17 11:00N 28°07' W 015°25'4 8.2
2018-Jun-17 10:30N 28°03' W 015°23'4 7.5
2018-Jun-17 10:00N 27°60' W 015°21'3 6.8
2018-Jun-17 09:30N 27°56' W 015°21'4 0.2
2018-Jun-16 11:50N 27°53' W 015°22'2 4.5
2018-Jun-16 11:29N 27°54' W 015°21'3 5.2
2018-Jun-16 11:00N 27°57' W 015°21'4 8.5
2018-Jun-16 10:30N 28°01' W 015°22'4 8.1
2018-Jun-16 10:00N 28°05' W 015°24'4 7.9
2018-Jun-16 09:30N 28°09' W 015°25'2 0.9
2018-Jun-16 07:17N 28°07' W 015°24'0 0.0
2018-Jun-16 07:01N 28°07' W 015°24'2 0.1
2018-Jun-14 20:21N 28°09' W 015°25'1 2.3
2018-Jun-14 20:00N 28°08' W 015°25'2 4.0
2018-Jun-14 19:30N 28°06' W 015°24'2 5.0
2018-Jun-14 19:00N 28°08' W 015°25'0 0.0
2018-Jun-13 10:42N 28°08' W 015°25'1 7.6
2018-Jun-13 10:31N 28°07' W 015°25'2 3.9
2018-Jun-13 10:00N 28°05' W 015°24'3 0.1
2018-Jun-12 13:03N 28°08' W 015°25'0 8.5
2018-Jun-12 13:00N 28°07' W 015°25'3 5.3
2018-Jun-12 12:30N 28°05' W 015°24'4 3.8
2018-Jun-12 11:28N 28°09' W 015°25'0 0.0
2018-Jun-12 11:00N 28°09' W 015°25'3 5.2
2018-Jun-12 10:30N 28°06' W 015°24'0 0.1
2018-Jun-12 10:00N 28°06' W 015°24'1 1.8
2018-Jun-12 09:30N 28°07' W 015°25'2 1.1
2018-Jun-12 07:57N 28°09' W 015°25'0 0.0
2018-Jun-11 12:30N 28°09' W 015°25'  

Dump ship's entire track history